Time;durP1;ratioP1;P1;durP2;ratioP2;P2;SDS_P1;SDS_P2;PMS_P1;PMS_P2;Temp;Humidity;BMP_temperature;BMP_pressure;BME280_temperature;BME280_humidity;BME280_pressure;Samples;Min_cycle;Max_cycle;Signal;HPM_P1;HPM_P2
2023/06/10 00:01:24;;;;;;;;;25.75;24.25;;;;;18.11;55.71;99758.03;5095559;28;8826;-61
2023/06/10 00:03:52;;;;;;;;;27.75;27.75;;;;;18.08;55.61;99761.03;5095517;28;8927;-60
2023/06/10 00:06:21;;;;;;;;;26.00;24.00;;;;;18.06;55.84;99764.97;5095839;28;8802;-60
2023/06/10 00:08:49;;;;;;;;;25.50;23.00;;;;;18.03;56.25;99765.28;5096031;28;8802;-61
2023/06/10 00:11:16;;;;;;;;;24.00;22.50;;;;;17.99;56.03;99759.41;5096297;28;8836;-59
2023/06/10 00:13:44;;;;;;;;;18.25;18.00;;;;;17.94;56.02;99751.00;5096295;28;8841;-58
2023/06/10 00:16:12;;;;;;;;;21.75;19.50;;;;;17.92;56.51;99762.97;5095565;28;8872;-58
2023/06/10 00:18:40;;;;;;;;;20.50;20.00;;;;;17.89;56.64;99763.31;5094780;28;8843;-59
2023/06/10 00:21:08;;;;;;;;;19.00;18.25;;;;;17.84;56.05;99763.00;5095455;28;8825;-59
2023/06/10 00:23:38;;;;;;;;;26.25;25.25;;;;;17.81;56.32;99758.78;5095824;28;9535;-58
2023/06/10 00:26:06;;;;;;;;;24.50;24.00;;;;;17.77;56.72;99756.63;5095226;28;8912;-60
2023/06/10 00:28:33;;;;;;;;;21.00;20.50;;;;;17.72;56.67;99757.13;5094997;28;8826;-60
2023/06/10 00:31:01;;;;;;;;;25.50;22.50;;;;;17.70;56.92;99759.13;5095721;28;8828;-59
2023/06/10 00:33:29;;;;;;;;;20.00;18.25;;;;;17.67;56.69;99766.72;5095685;28;8864;-58
2023/06/10 00:35:57;;;;;;;;;21.50;21.00;;;;;17.63;56.54;99763.53;5095118;28;9500;-60
2023/06/10 00:38:24;;;;;;;;;22.00;20.00;;;;;17.60;56.39;99765.75;5095026;28;8878;-60
2023/06/10 00:40:52;;;;;;;;;27.25;24.25;;;;;17.58;56.66;99765.06;5095374;28;8832;-60
2023/06/10 00:43:20;;;;;;;;;25.00;22.00;;;;;17.54;56.74;99764.56;5096186;28;9476;-60
2023/06/10 00:45:48;;;;;;;;;32.00;27.75;;;;;17.51;57.04;99762.22;5095689;28;8830;-61
2023/06/10 00:48:16;;;;;;;;;25.50;23.50;;;;;17.48;56.88;99765.22;5095671;28;8868;-60
2023/06/10 00:50:44;;;;;;;;;29.50;25.75;;;;;17.45;57.02;99754.00;5095116;28;8945;-60
2023/06/10 00:53:12;;;;;;;;;31.50;29.75;;;;;17.42;57.44;99757.84;5095529;28;8857;-60
2023/06/10 00:55:39;;;;;;;;;24.00;22.00;;;;;17.41;56.98;99764.25;5095893;28;8826;-60
2023/06/10 00:58:07;;;;;;;;;25.00;24.75;;;;;17.40;57.40;99762.53;5095816;28;8814;-60
2023/06/10 01:00:35;;;;;;;;;29.75;27.25;;;;;17.39;57.68;99760.03;5095539;28;8822;-59
2023/06/10 01:03:07;;;;;;;;;27.00;23.50;;;;;17.36;57.12;99763.91;5095625;28;8845;-58
2023/06/10 01:05:36;;;;;;;;;26.50;22.50;;;;;17.33;57.05;99763.38;5095412;28;8825;-60
2023/06/10 01:08:04;;;;;;;;;29.75;26.00;;;;;17.31;57.12;99757.31;5095128;28;8814;-60
2023/06/10 01:10:32;;;;;;;;;29.75;25.00;;;;;17.27;57.48;99762.22;5098408;28;8857;-60
2023/06/10 01:13:02;;;;;;;;;24.50;21.50;;;;;17.21;57.78;99762.00;5099129;28;8830;-60
2023/06/10 01:15:30;;;;;;;;;24.50;23.00;;;;;17.18;57.54;99762.38;5099276;28;8933;-60
2023/06/10 01:17:58;;;;;;;;;24.50;23.00;;;;;17.13;57.78;99765.56;5098869;28;8927;-60
2023/06/10 01:20:27;;;;;;;;;19.00;18.25;;;;;17.11;57.62;99770.28;5099585;28;8846;-60
2023/06/10 01:22:56;;;;;;;;;21.75;19.50;;;;;17.07;57.76;99771.63;5099371;28;8822;-60
2023/06/10 01:25:27;;;;;;;;;16.75;15.00;;;;;17.04;57.49;99771.09;5098911;28;8806;-60
2023/06/10 01:27:55;;;;;;;;;25.00;22.00;;;;;17.01;57.60;99763.38;5099396;28;8835;-60
2023/06/10 01:30:23;;;;;;;;;24.50;23.00;;;;;16.99;57.73;99771.59;5099382;28;8829;-61
2023/06/10 01:32:50;;;;;;;;;24.75;22.00;;;;;16.95;57.93;99767.56;5099246;28;8953;-60
2023/06/10 01:35:18;;;;;;;;;25.75;22.50;;;;;16.94;58.32;99770.44;5098932;28;8877;-61
2023/06/10 01:37:46;;;;;;;;;20.25;17.75;;;;;16.91;57.97;99766.22;5099083;28;8837;-58
2023/06/10 01:40:14;;;;;;;;;27.00;24.75;;;;;16.90;58.02;99772.63;5098918;28;8907;-60
2023/06/10 01:42:41;;;;;;;;;17.25;15.50;;;;;16.87;58.01;99777.47;5099335;28;8814;-59
2023/06/10 01:45:09;;;;;;;;;24.50;22.50;;;;;16.84;57.97;99770.56;5098792;28;8852;-60
2023/06/10 01:47:38;;;;;;;;;20.00;18.75;;;;;16.83;58.54;99779.66;5098931;28;8834;-60
2023/06/10 01:50:05;;;;;;;;;21.25;18.50;;;;;16.82;58.43;99777.97;5099185;28;9480;-59
2023/06/10 01:52:33;;;;;;;;;23.75;21.50;;;;;16.79;57.76;99783.66;5098945;28;8856;-60
2023/06/10 01:55:01;;;;;;;;;25.00;24.00;;;;;16.78;58.15;99782.00;5098719;28;9487;-58
2023/06/10 01:57:28;;;;;;;;;26.50;23.50;;;;;16.74;58.43;99775.28;5098554;28;8826;-58
2023/06/10 01:59:56;;;;;;;;;28.00;25.00;;;;;16.72;58.42;99782.66;5098632;28;8821;-58
2023/06/10 02:02:24;;;;;;;;;21.25;19.25;;;;;16.68;58.18;99773.25;5098675;28;8846;-57
2023/06/10 02:04:52;;;;;;;;;23.50;21.00;;;;;16.64;58.61;99771.88;5098456;28;8965;-59
2023/06/10 02:07:20;;;;;;;;;22.75;18.00;;;;;16.61;58.15;99779.44;5098549;28;8806;-57
2023/06/10 02:09:48;;;;;;;;;28.75;27.00;;;;;16.54;58.79;99768.50;5098117;28;8856;-57
2023/06/10 02:12:15;;;;;;;;;21.00;19.75;;;;;16.50;58.94;99772.50;5098305;28;8833;-60
2023/06/10 02:14:44;;;;;;;;;21.50;21.25;;;;;16.46;58.63;99773.00;5098188;28;9476;-59
2023/06/10 02:17:14;;;;;;;;;26.00;22.00;;;;;16.43;58.98;99771.50;5098072;28;8832;-58
2023/06/10 02:19:42;;;;;;;;;30.50;27.25;;;;;16.39;59.07;99777.34;5098263;28;8828;-57
2023/06/10 02:22:10;;;;;;;;;23.67;22.67;;;;;16.35;58.91;99774.09;5097275;28;8838;-60
2023/06/10 02:24:38;;;;;;;;;24.00;24.00;;;;;16.31;59.19;99772.75;5098229;28;8854;-60
2023/06/10 02:27:07;;;;;;;;;29.00;24.75;;;;;16.26;59.41;99788.50;5097523;28;8810;-59
2023/06/10 02:29:38;;;;;;;;;25.75;25.00;;;;;16.19;59.60;99776.72;5097767;28;8825;-58
2023/06/10 02:32:06;;;;;;;;;25.25;24.25;;;;;16.15;59.31;99787.13;5097594;28;8821;-58
2023/06/10 02:34:37;;;;;;;;;21.25;21.00;;;;;16.10;59.96;99790.31;5097615;28;8936;-58
2023/06/10 02:37:05;;;;;;;;;26.50;26.50;;;;;16.05;60.05;99783.72;5096939;28;8838;-60
2023/06/10 02:39:32;;;;;;;;;30.25;27.50;;;;;16.00;59.94;99789.56;5097603;28;8944;-59
2023/06/10 02:42:00;;;;;;;;;24.50;21.00;;;;;15.97;60.05;99791.72;5097588;28;8841;-58
2023/06/10 02:44:28;;;;;;;;;24.00;22.50;;;;;15.92;60.17;99780.63;5097743;28;8825;-57
2023/06/10 02:46:56;;;;;;;;;23.25;21.25;;;;;15.92;60.14;99791.38;5097456;28;8806;-59
2023/06/10 02:49:23;;;;;;;;;27.00;26.50;;;;;15.88;60.23;99788.16;5097718;28;8880;-58
2023/06/10 02:51:53;;;;;;;;;24.25;21.50;;;;;15.86;60.38;99786.66;5097694;28;8806;-58
2023/06/10 02:54:21;;;;;;;;;20.50;19.75;;;;;15.85;60.09;99788.47;5097201;28;8825;-60
2023/06/10 02:56:48;;;;;;;;;32.00;29.00;;;;;15.86;60.15;99782.09;5097524;28;8818;-59
2023/06/10 02:59:16;;;;;;;;;32.50;27.75;;;;;15.89;60.43;99786.31;5097488;28;8814;-59
2023/06/10 03:01:44;;;;;;;;;35.00;29.50;;;;;15.88;60.35;99796.22;5097460;28;8814;-59
2023/06/10 03:04:13;;;;;;;;;31.00;28.00;;;;;15.87;59.86;99788.31;5097397;28;8830;-58
2023/06/10 03:06:42;;;;;;;;;28.50;25.50;;;;;15.87;60.20;99783.81;5097319;28;8826;-60
2023/06/10 03:09:09;;;;;;;;;33.00;30.50;;;;;15.85;60.15;99793.03;5097330;28;9531;-59
2023/06/10 03:11:37;;;;;;;;;31.50;28.00;;;;;15.82;60.47;99785.25;5096687;28;8818;-60
2023/06/10 03:14:05;;;;;;;;;32.00;25.75;;;;;15.80;60.03;99789.97;5097041;28;8817;-59
2023/06/10 03:16:33;;;;;;;;;31.75;26.50;;;;;15.77;60.39;99790.28;5096769;28;8826;-57
2023/06/10 03:19:01;;;;;;;;;25.50;23.75;;;;;15.75;60.25;99781.53;5096299;28;8911;-60
2023/06/10 03:21:29;;;;;;;;;23.25;23.25;;;;;15.75;60.73;99784.22;5097102;28;8903;-59
2023/06/10 03:23:56;;;;;;;;;33.75;31.00;;;;;15.73;60.32;99783.53;5096747;28;8810;-60
2023/06/10 03:26:25;;;;;;;;;22.75;21.00;;;;;15.72;60.27;99782.72;5097274;28;8822;-60
2023/06/10 03:28:53;;;;;;;;;31.00;25.50;;;;;15.72;60.52;99781.84;5097340;28;8818;-59
2023/06/10 03:31:21;;;;;;;;;32.00;29.25;;;;;15.71;60.32;99783.69;5096820;28;8825;-60
2023/06/10 03:33:48;;;;;;;;;31.50;30.00;;;;;15.70;60.83;99778.50;5095850;28;8953;-59
2023/06/10 03:36:16;;;;;;;;;25.50;23.50;;;;;15.69;60.19;99785.69;5096826;28;8830;-60
2023/06/10 03:38:44;;;;;;;;;26.50;25.50;;;;;15.67;60.82;99793.06;5096798;28;8871;-60
2023/06/10 03:41:12;;;;;;;;;34.50;32.50;;;;;15.66;60.64;99798.59;5096543;28;8829;-58
2023/06/10 03:43:40;;;;;;;;;31.25;28.00;;;;;15.64;60.81;99795.22;5096793;28;9527;-59
2023/06/10 03:46:08;;;;;;;;;32.50;27.00;;;;;15.63;61.04;99796.22;5096793;28;8844;-60
2023/06/10 03:48:36;;;;;;;;;27.25;24.75;;;;;15.64;60.56;99795.22;5096472;28;8825;-59
2023/06/10 03:51:04;;;;;;;;;37.25;31.50;;;;;15.65;60.57;99795.06;5097036;28;8830;-60
2023/06/10 03:53:31;;;;;;;;;37.25;33.25;;;;;15.67;60.72;99805.63;5096590;28;9511;-60
2023/06/10 03:55:59;;;;;;;;;32.25;28.75;;;;;15.68;60.94;99805.50;5096647;28;8830;-59
2023/06/10 03:58:27;;;;;;;;;24.00;20.75;;;;;15.71;60.84;99815.06;5096452;28;8818;-59
2023/06/10 04:00:55;;;;;;;;;27.75;25.00;;;;;15.74;61.09;99806.69;5096098;28;8829;-59
2023/06/10 04:03:23;;;;;;;;;30.00;27.00;;;;;15.76;60.25;99804.72;5096193;28;8826;-60
2023/06/10 04:05:51;;;;;;;;;30.25;29.50;;;;;15.79;60.55;99810.59;5095799;28;8864;-59
2023/06/10 04:08:20;;;;;;;;;24.75;24.75;;;;;15.81;60.38;99807.75;5096356;28;8822;-60
2023/06/10 04:10:48;;;;;;;;;28.50;24.50;;;;;15.83;59.90;99811.97;5095907;28;8822;-60
2023/06/10 04:13:15;;;;;;;;;28.75;22.50;;;;;15.87;60.64;99809.81;5095808;28;8841;-60
2023/06/10 04:15:43;;;;;;;;;26.00;24.25;;;;;15.90;60.62;99820.22;5096130;28;8833;-60
2023/06/10 04:18:11;;;;;;;;;19.25;17.50;;;;;15.96;60.37;99819.59;5095380;28;8865;-59
2023/06/10 04:20:44;;;;;;;;;25.75;23.50;;;;;16.02;60.24;99811.75;5095745;28;8822;-60
2023/06/10 04:23:11;;;;;;;;;29.50;27.00;;;;;16.14;59.75;99818.53;5095568;28;8826;-60
2023/06/10 04:25:39;;;;;;;;;26.00;25.00;;;;;16.29;59.46;99820.47;5095737;28;8834;-59
2023/06/10 04:28:07;;;;;;;;;26.25;24.25;;;;;16.49;59.51;99815.69;5096195;28;8834;-59
2023/06/10 04:30:35;;;;;;;;;21.50;20.00;;;;;16.65;59.40;99815.75;5096049;28;8814;-60
2023/06/10 04:33:02;;;;;;;;;25.50;24.50;;;;;16.82;58.48;99815.63;5095495;28;8818;-59
2023/06/10 04:35:30;;;;;;;;;24.00;20.00;;;;;16.99;58.32;99820.03;5095740;28;8825;-60
2023/06/10 04:37:58;;;;;;;;;24.50;21.25;;;;;17.11;58.65;99813.34;5095866;28;8944;-60
2023/06/10 04:40:26;;;;;;;;;25.25;20.00;;;;;17.23;58.57;99820.06;5095690;28;8810;-60
2023/06/10 04:42:54;;;;;;;;;21.50;20.00;;;;;17.37;57.96;99818.56;5095936;28;9495;-58
2023/06/10 04:45:22;;;;;;;;;18.00;16.25;;;;;17.46;57.94;99815.72;5098502;28;8860;-59
2023/06/10 04:47:50;;;;;;;;;21.50;21.50;;;;;17.58;57.79;99813.53;5099387;28;8945;-60
2023/06/10 04:50:17;;;;;;;;;22.50;19.00;;;;;17.69;57.60;99811.34;5099456;28;8814;-60
2023/06/10 04:52:45;;;;;;;;;25.75;21.00;;;;;17.78;57.19;99815.69;5099565;28;8821;-60
2023/06/10 04:55:13;;;;;;;;;22.00;22.00;;;;;17.88;57.62;99820.91;5099651;28;8847;-60
2023/06/10 04:57:40;;;;;;;;;24.25;22.00;;;;;17.96;57.00;99815.50;5099897;28;8840;-60
2023/06/10 05:00:08;;;;;;;;;29.50;27.00;;;;;18.03;57.63;99811.09;5099488;28;8845;-60
2023/06/10 05:02:36;;;;;;;;;23.75;21.75;;;;;18.08;57.07;99812.25;5098871;28;9542;-59
2023/06/10 05:05:04;;;;;;;;;27.75;25.00;;;;;18.13;56.95;99819.84;5098869;28;8930;-60
2023/06/10 05:07:31;;;;;;;;;23.25;23.00;;;;;18.16;57.28;99812.25;5099915;28;8826;-60
2023/06/10 05:09:59;;;;;;;;;27.25;25.00;;;;;18.21;57.49;99817.13;5099046;28;8830;-60
2023/06/10 05:12:27;;;;;;;;;24.50;21.75;;;;;18.27;57.30;99811.88;5098460;28;8833;-61
2023/06/10 05:14:55;;;;;;;;;22.00;19.00;;;;;18.30;57.56;99813.41;5099038;28;8852;-61
2023/06/10 05:17:23;;;;;;;;;28.50;23.50;;;;;18.32;57.46;99814.09;5099185;28;8853;-60
2023/06/10 05:19:50;;;;;;;;;25.00;22.00;;;;;18.32;57.83;99816.78;5099099;28;8850;-60
2023/06/10 05:22:18;;;;;;;;;22.50;22.00;;;;;18.33;57.51;99813.91;5097547;28;8838;-60
2023/06/10 05:24:46;;;;;;;;;21.50;21.00;;;;;18.36;57.40;99821.66;5078371;28;8838;-61
2023/06/10 05:27:14;;;;;;;;;30.00;25.50;;;;;18.40;57.44;99820.28;5078997;28;8824;-61
2023/06/10 05:29:41;;;;;;;;;21.50;19.50;;;;;18.46;57.59;99814.22;5078409;28;8855;-60
2023/06/10 05:32:09;;;;;;;;;32.75;30.25;;;;;18.54;57.26;99810.63;5078309;28;8895;-60
2023/06/10 05:34:37;;;;;;;;;27.00;24.00;;;;;18.62;57.00;99811.44;5097388;28;9556;-60
2023/06/10 05:37:05;;;;;;;;;24.75;21.75;;;;;18.72;56.65;99806.66;5098341;28;9492;-58
2023/06/10 05:39:32;;;;;;;;;31.25;25.00;;;;;18.85;56.72;99808.75;5098824;28;8822;-60
2023/06/10 05:42:02;;;;;;;;;25.50;24.50;;;;;18.97;56.45;99810.06;5098913;28;8840;-60
2023/06/10 05:44:29;;;;;;;;;27.50;25.25;;;;;19.11;56.30;99810.09;5098706;28;8822;-60
2023/06/10 05:46:57;;;;;;;;;23.25;22.25;;;;;19.27;56.32;99809.19;5098754;28;8851;-60
2023/06/10 05:49:25;;;;;;;;;23.50;23.25;;;;;19.42;56.25;99813.63;5097648;28;8887;-58
2023/06/10 05:51:53;;;;;;;;;23.00;23.00;;;;;19.58;55.51;99815.34;5097871;28;8822;-60
2023/06/10 05:54:21;;;;;;;;;22.60;18.40;;;;;19.74;55.62;99816.06;5098005;28;8806;-58
2023/06/10 05:56:49;;;;;;;;;23.40;20.00;;;;;19.89;54.95;99810.66;5096785;28;8837;-60
2023/06/10 05:59:16;;;;;;;;;20.80;20.60;;;;;20.05;54.62;99814.09;5097568;28;8948;-59
2023/06/10 06:01:44;;;;;;;;;21.20;20.20;;;;;20.18;54.34;99811.53;5097067;28;8834;-59
2023/06/10 06:04:12;;;;;;;;;21.00;20.00;;;;;20.34;54.39;99813.25;5095875;28;8830;-60
2023/06/10 06:06:41;;;;;;;;;19.60;17.80;;;;;20.49;53.98;99811.38;5096682;28;8869;-60
2023/06/10 06:09:09;;;;;;;;;20.40;19.40;;;;;20.64;54.04;99813.00;5097297;28;8830;-60
2023/06/10 06:11:38;;;;;;;;;18.40;16.20;;;;;20.78;53.62;99812.16;5097397;28;8968;-60
2023/06/10 06:14:08;;;;;;;;;17.60;16.00;;;;;20.93;53.53;99812.97;5096504;28;8844;-60
2023/06/10 06:16:36;;;;;;;;;22.40;21.20;;;;;21.06;53.67;99821.25;5097122;28;8860;-58
2023/06/10 06:19:04;;;;;;;;;21.80;19.20;;;;;21.17;53.52;99818.88;5096846;28;8922;-59
2023/06/10 06:21:32;;;;;;;;;14.00;13.20;;;;;21.25;53.50;99812.53;5097140;28;8834;-60
2023/06/10 06:23:59;;;;;;;;;20.60;20.40;;;;;21.33;53.08;99806.97;5096788;28;8822;-61
2023/06/10 06:26:27;;;;;;;;;18.00;17.00;;;;;21.42;53.09;99813.94;5096151;28;8868;-60
2023/06/10 06:28:55;;;;;;;;;20.20;15.60;;;;;21.48;52.92;99805.03;5097349;28;8846;-59
2023/06/10 06:31:23;;;;;;;;;19.80;19.20;;;;;21.58;52.99;99811.81;5097580;28;8844;-59
2023/06/10 06:33:51;;;;;;;;;18.20;17.40;;;;;21.69;52.79;99813.16;5097253;28;8924;-61
2023/06/10 06:36:19;;;;;;;;;12.40;11.80;;;;;21.80;52.53;99810.75;5096386;28;8818;-58
2023/06/10 06:38:46;;;;;;;;;18.40;18.00;;;;;21.90;52.38;99813.13;5097146;28;8864;-58
2023/06/10 06:41:14;;;;;;;;;15.80;15.20;;;;;21.99;51.99;99810.06;5097267;28;8818;-60
2023/06/10 06:43:43;;;;;;;;;14.20;12.60;;;;;22.08;51.88;99816.19;5097389;28;8814;-58
2023/06/10 06:46:10;;;;;;;;;17.00;14.60;;;;;22.16;52.48;99818.75;5097175;28;8810;-59
2023/06/10 06:48:39;;;;;;;;;14.80;14.80;;;;;22.23;51.99;99816.91;5096966;28;8992;-60
2023/06/10 06:51:07;;;;;;;;;13.60;12.40;;;;;22.31;51.65;99819.47;5096227;28;8842;-58
2023/06/10 06:53:35;;;;;;;;;15.60;14.00;;;;;22.39;51.54;99822.03;5096111;28;8818;-60
2023/06/10 06:56:03;;;;;;;;;17.40;14.20;;;;;22.48;51.28;99812.69;5095786;28;8953;-59
2023/06/10 06:58:31;;;;;;;;;13.40;13.40;;;;;22.56;51.50;99809.81;5096068;28;8838;-59
2023/06/10 07:00:59;;;;;;;;;17.60;15.40;;;;;22.63;51.40;99813.41;5095640;28;8830;-59
2023/06/10 07:03:27;;;;;;;;;13.20;11.20;;;;;22.73;51.15;99817.41;5095739;28;8838;-60
2023/06/10 07:05:55;;;;;;;;;15.00;13.00;;;;;22.82;51.45;99818.91;5095655;28;8945;-60
2023/06/10 07:08:23;;;;;;;;;15.80;12.40;;;;;22.91;51.26;99817.69;5095295;28;8891;-60
2023/06/10 07:10:50;;;;;;;;;8.40;8.00;;;;;23.00;51.13;99826.50;5095451;28;8833;-60
2023/06/10 07:13:18;;;;;;;;;17.00;15.80;;;;;23.10;50.68;99819.66;5094729;28;8842;-60
2023/06/10 07:15:48;;;;;;;;;16.00;14.00;;;;;23.20;50.63;99828.25;5094485;28;8806;-59
2023/06/10 07:18:15;;;;;;;;;13.40;12.80;;;;;23.24;50.31;99820.53;5094261;28;9530;-59
2023/06/10 07:20:43;;;;;;;;;16.60;13.60;;;;;23.27;50.45;99814.69;5095010;28;8822;-61
2023/06/10 07:23:11;;;;;;;;;12.80;12.20;;;;;23.36;50.11;99817.00;5095589;28;8876;-60
2023/06/10 07:25:39;;;;;;;;;14.60;14.20;;;;;23.49;49.89;99821.63;5095122;28;8798;-60
2023/06/10 07:28:07;;;;;;;;;16.40;14.40;;;;;23.59;50.18;99824.78;5095280;28;8822;-60
2023/06/10 07:30:35;;;;;;;;;13.80;13.60;;;;;23.66;50.16;99825.63;5095646;28;9523;-60
2023/06/10 07:33:04;;;;;;;;;12.00;11.40;;;;;23.75;49.55;99821.66;5095362;28;8869;-59
2023/06/10 07:35:32;;;;;;;;;13.00;13.00;;;;;23.82;49.55;99823.31;5095506;28;8834;-59
2023/06/10 07:38:01;;;;;;;;;15.20;13.80;;;;;23.91;49.58;99827.53;5095046;28;8932;-59
2023/06/10 07:40:29;;;;;;;;;17.20;14.80;;;;;24.01;49.66;99821.66;5094677;28;8852;-60
2023/06/10 07:43:00;;;;;;;;;11.40;10.40;;;;;24.13;49.14;99825.44;5094829;28;9492;-58
2023/06/10 07:45:28;;;;;;;;;13.40;13.40;;;;;24.24;49.40;99828.34;5094342;28;8881;-61
2023/06/10 07:47:56;;;;;;;;;12.60;12.00;;;;;24.29;49.09;99825.84;5095116;28;8849;-60
2023/06/10 07:50:24;;;;;;;;;15.00;12.40;;;;;24.38;48.99;99823.69;5094406;28;8818;-60
2023/06/10 07:52:52;;;;;;;;;14.00;12.40;;;;;24.51;48.73;99829.13;5094705;28;8841;-61
2023/06/10 07:55:19;;;;;;;;;15.00;14.20;;;;;24.62;49.14;99833.91;5094840;28;8822;-61
2023/06/10 07:57:47;;;;;;;;;14.20;12.80;;;;;24.73;48.46;99833.28;5094998;28;8844;-59
2023/06/10 08:00:16;;;;;;;;;12.80;12.00;;;;;24.80;49.04;99837.63;5094438;28;8912;-59
2023/06/10 08:02:44;;;;;;;;;12.40;12.00;;;;;24.87;48.82;99830.28;5094854;28;8862;-59
2023/06/10 08:05:11;;;;;;;;;13.00;11.80;;;;;24.96;48.10;99831.69;5094525;28;8810;-60
2023/06/10 08:07:40;;;;;;;;;17.20;16.00;;;;;25.04;48.84;99830.63;5094900;28;8910;-60
2023/06/10 08:10:08;;;;;;;;;14.00;13.80;;;;;25.13;48.12;99829.31;5094692;28;8838;-60
2023/06/10 08:12:38;;;;;;;;;12.40;11.20;;;;;25.18;48.48;99826.78;5094130;28;8899;-61
2023/06/10 08:15:06;;;;;;;;;10.40;10.00;;;;;25.27;48.20;99829.06;5094270;28;8927;-59
2023/06/10 08:17:34;;;;;;;;;15.40;15.00;;;;;25.35;47.77;99830.69;5095382;28;8853;-61
2023/06/10 08:20:02;;;;;;;;;15.00;14.80;;;;;25.43;48.18;99824.97;5093236;28;8902;-61
2023/06/10 08:22:31;;;;;;;;;12.80;12.80;;;;;25.56;47.87;99833.88;5094646;28;8830;-60
2023/06/10 08:24:59;;;;;;;;;15.40;13.20;;;;;25.64;47.68;99826.28;5094258;28;8840;-59
2023/06/10 08:27:27;;;;;;;;;13.20;12.40;;;;;25.71;47.25;99829.81;5094862;28;8918;-61
2023/06/10 08:29:55;;;;;;;;;12.60;12.00;;;;;25.83;47.07;99827.19;5093240;28;9508;-58
2023/06/10 08:32:23;;;;;;;;;14.20;13.00;;;;;25.96;47.56;99833.41;5093370;28;8842;-61
2023/06/10 08:34:51;;;;;;;;;11.20;11.00;;;;;26.08;46.74;99839.81;5094090;28;8826;-60
2023/06/10 08:37:19;;;;;;;;;16.20;15.60;;;;;26.18;46.69;99831.94;5094556;28;8948;-59
2023/06/10 08:39:48;;;;;;;;;13.00;12.20;;;;;26.31;46.95;99826.34;5094770;28;8964;-59
2023/06/10 08:42:15;;;;;;;;;13.40;12.60;;;;;26.43;47.11;99823.69;5094702;28;8931;-59
2023/06/10 08:44:44;;;;;;;;;14.20;12.80;;;;;26.58;46.26;99827.75;5094019;28;8822;-60
2023/06/10 08:47:12;;;;;;;;;13.00;13.00;;;;;26.69;46.54;99824.28;5094035;28;8830;-60
2023/06/10 08:49:42;;;;;;;;;14.40;13.40;;;;;26.80;46.14;99823.50;5094091;28;8934;-60
2023/06/10 08:52:11;;;;;;;;;12.00;12.00;;;;;26.88;45.69;99831.38;5094303;28;8927;-60
2023/06/10 08:54:39;;;;;;;;;14.00;14.00;;;;;26.96;45.86;99825.63;5093752;28;8854;-61
2023/06/10 08:57:07;;;;;;;;;15.80;13.40;;;;;27.04;45.76;99821.72;5093550;28;8844;-60
2023/06/10 08:59:35;;;;;;;;;11.60;10.00;;;;;27.11;46.23;99822.47;5093768;28;8902;-58
2023/06/10 09:02:03;;;;;;;;;13.40;13.40;;;;;27.19;45.68;99824.94;5093146;28;8890;-58
2023/06/10 09:04:33;;;;;;;;;18.20;16.00;;;;;27.26;46.03;99829.25;5093617;28;8993;-61
2023/06/10 09:07:01;;;;;;;;;15.60;14.60;;;;;27.34;45.95;99830.81;5093534;28;8910;-61
2023/06/10 09:09:30;;;;;;;;;15.60;14.00;;;;;27.41;45.86;99824.19;5092711;28;8836;-60
2023/06/10 09:11:58;;;;;;;;;13.60;12.40;;;;;27.50;45.37;99827.41;5093199;28;8857;-58
2023/06/10 09:14:26;;;;;;;;;14.40;13.20;;;;;27.57;45.63;99822.69;5092287;28;8834;-61
2023/06/10 09:16:56;;;;;;;;;15.80;15.00;;;;;27.62;45.54;99826.38;5093649;28;8822;-59
2023/06/10 09:19:24;;;;;;;;;11.40;10.40;;;;;27.72;45.58;99829.41;5093344;28;8976;-60
2023/06/10 09:21:57;;;;;;;;;16.00;15.00;;;;;27.81;45.46;99825.28;5093950;28;8838;-61
2023/06/10 09:24:26;;;;;;;;;15.00;14.00;;;;;27.90;45.85;99829.31;5093929;28;8836;-60
2023/06/10 09:26:53;;;;;;;;;15.00;15.00;;;;;27.98;45.57;99820.75;5094320;28;9011;-60
2023/06/10 09:29:21;;;;;;;;;16.40;15.40;;;;;28.03;45.40;99822.78;5094741;28;8833;-59
2023/06/10 09:31:49;;;;;;;;;15.40;15.40;;;;;28.10;45.00;99821.63;5097149;28;8972;-60
2023/06/10 09:34:17;;;;;;;;;15.00;14.80;;;;;28.18;44.66;99821.25;5097516;28;8934;-61
2023/06/10 09:36:45;;;;;;;;;15.60;15.60;;;;;28.31;45.11;99822.91;5097782;28;8837;-58
2023/06/10 09:39:13;;;;;;;;;16.00;16.00;;;;;28.35;44.51;99824.97;5097362;28;8822;-59
2023/06/10 09:41:41;;;;;;;;;16.20;15.40;;;;;28.43;45.39;99827.34;5097297;28;8848;-61
2023/06/10 09:44:09;;;;;;;;;11.80;10.80;;;;;28.51;44.36;99821.50;5097867;28;8854;-58
2023/06/10 09:46:37;;;;;;;;;15.80;15.40;;;;;28.61;44.13;99827.19;5097228;28;8830;-59
2023/06/10 09:49:06;;;;;;;;;16.20;15.80;;;;;28.68;44.40;99827.91;5097310;28;8937;-60
2023/06/10 09:51:33;;;;;;;;;17.20;16.20;;;;;28.75;44.52;99823.13;5096779;28;8826;-60
2023/06/10 09:54:01;;;;;;;;;18.20;18.00;;;;;28.84;44.16;99829.06;5096496;28;8846;-59
2023/06/10 09:56:30;;;;;;;;;16.40;16.20;;;;;28.96;44.57;99825.25;5094728;28;8799;-59
2023/06/10 09:58:58;;;;;;;;;18.00;16.80;;;;;29.16;43.78;99822.94;5096797;28;9532;-61
2023/06/10 10:01:26;;;;;;;;;18.00;17.40;;;;;29.44;43.71;99816.59;5095602;28;9039;-60
2023/06/10 10:03:55;;;;;;;;;16.60;15.20;;;;;29.72;43.07;99819.34;5096265;28;8869;-59
2023/06/10 10:06:23;;;;;;;;;18.40;18.00;;;;;29.87;42.54;99814.91;5096289;28;9527;-60
2023/06/10 10:08:51;;;;;;;;;17.20;16.40;;;;;30.05;42.64;99813.84;5096157;28;8830;-58
2023/06/10 10:11:19;;;;;;;;;7.40;7.40;;;;;30.29;42.32;99807.94;5096094;28;8821;-58
2023/06/10 10:13:48;;;;;;;;;14.20;13.20;;;;;30.58;42.17;99814.13;5096630;28;8858;-60
2023/06/10 10:16:16;;;;;;;;;15.00;13.80;;;;;30.90;41.69;99815.97;5096322;28;8967;-60
2023/06/10 10:18:44;;;;;;;;;20.00;19.40;;;;;31.16;40.71;99813.28;5095721;28;8826;-60
2023/06/10 10:21:12;;;;;;;;;17.00;16.60;;;;;31.45;40.55;99806.44;5095472;28;9533;-61
2023/06/10 10:23:40;;;;;;;;;17.00;16.00;;;;;31.78;40.19;99802.66;5095546;28;8841;-61
2023/06/10 10:26:08;;;;;;;;;13.60;13.40;;;;;32.10;39.93;99800.72;5095967;28;9000;-60
2023/06/10 10:28:37;;;;;;;;;17.60;15.00;;;;;32.38;39.39;99801.22;5095971;28;9511;-59
2023/06/10 10:31:05;;;;;;;;;16.00;16.00;;;;;32.69;38.89;99807.75;5095846;28;8830;-59
2023/06/10 10:33:33;;;;;;;;;18.80;18.40;;;;;32.91;38.86;99806.47;5095085;28;8858;-61
2023/06/10 10:36:04;;;;;;;;;16.60;16.00;;;;;33.14;38.19;99799.69;5095019;28;8848;-59
2023/06/10 10:38:32;;;;;;;;;14.80;13.20;;;;;33.43;38.25;99800.84;5094599;28;8818;-60
2023/06/10 10:41:01;;;;;;;;;18.00;16.40;;;;;33.78;38.18;99795.41;5094363;28;9535;-60
2023/06/10 10:43:30;;;;;;;;;15.80;15.00;;;;;34.14;37.58;99791.53;5095214;28;8876;-60
2023/06/10 10:46:00;;;;;;;;;17.40;16.80;;;;;34.31;37.12;99794.84;5095140;28;9492;-61
2023/06/10 10:48:29;;;;;;;;;18.80;18.20;;;;;34.49;37.13;99797.06;5095193;28;8845;-61
2023/06/10 10:50:58;;;;;;;;;14.80;14.60;;;;;34.64;36.38;99786.75;5095289;28;8829;-59
2023/06/10 10:53:26;;;;;;;;;19.20;17.80;;;;;34.76;37.10;99786.47;5095600;28;8826;-62
2023/06/10 10:55:54;;;;;;;;;19.20;18.80;;;;;34.88;37.03;99790.56;5096301;28;8968;-61
2023/06/10 10:58:22;;;;;;;;;14.20;14.20;;;;;34.93;36.12;99795.25;5095484;28;8828;-60
2023/06/10 11:00:52;;;;;;;;;15.60;15.60;;;;;35.07;36.64;99790.75;5094851;28;8822;-60
2023/06/10 11:03:21;;;;;;;;;15.60;15.40;;;;;35.24;36.24;99782.91;5095434;28;8826;-63
2023/06/10 11:05:49;;;;;;;;;16.40;16.00;;;;;35.38;36.04;99781.16;5094937;28;8814;-62
2023/06/10 11:08:18;;;;;;;;;15.20;15.20;;;;;35.46;36.28;99780.56;5094672;28;8837;-61
2023/06/10 11:10:46;;;;;;;;;18.00;17.00;;;;;35.57;36.08;99773.84;5095043;28;8852;-63
2023/06/10 11:13:15;;;;;;;;;17.20;15.80;;;;;35.70;35.38;99781.56;5094671;28;8834;-61
2023/06/10 11:15:44;;;;;;;;;19.80;16.60;;;;;35.82;35.14;99770.91;5094690;28;8826;-60
2023/06/10 11:18:13;;;;;;;;;18.80;17.80;;;;;35.94;35.48;99771.34;5094672;28;8822;-60
2023/06/10 11:20:41;;;;;;;;;16.80;16.60;;;;;36.05;35.17;99774.56;5093770;28;8841;-62
2023/06/10 11:23:09;;;;;;;;;19.80;17.60;;;;;36.19;34.81;99767.25;5092136;28;8860;-61
2023/06/10 11:25:37;;;;;;;;;14.60;14.20;;;;;36.36;34.90;99770.41;5093409;28;8857;-61
2023/06/10 11:28:05;;;;;;;;;18.80;16.40;;;;;36.57;34.11;99771.81;5093506;28;8830;-61